Rockland, Wisconsin
Current Conditions -  °F | °C
As of 2:35 PM on Monday 24 Nov 2014 (Local Time) from KCMY Reporting Station
Light Snow Light Snow  
Wind Chill: 17°   Ceiling: 1500
Heat Index: 27°   Visibility: 1.5mi
Dew Point: 26°   Wind: 12mph
Humidity: 94%   Direction: 270°W
Pressure: 29.42"   Gusts: 17mph
Location:  43.91°N, 90.92°W
Report Text: KCMY 242035Z AUTO 27010G15KT 1 1/2SM -SN BKN015 OVC021 M03/M04 A2942 RMK AO2 T10271036
Loading
Personal Weather Stations






























Interactive Weather Map New forecast layout! Learn more

10-Day Weather Forecast

Advertisements
Track Severe Weather on mobile